createdAt,value
2022-12-08T00:00:22.912Z,0.00
2022-12-08T00:01:23.238Z,0.00
2022-12-08T00:02:23.542Z,0.00
2022-12-08T00:03:23.924Z,0.00
2022-12-08T00:04:24.044Z,0.00
2022-12-08T00:05:24.342Z,0.00
2022-12-08T00:06:24.682Z,0.00
2022-12-08T00:07:25.015Z,0.00
2022-12-08T00:08:25.406Z,0.00
2022-12-08T00:09:25.645Z,0.00
2022-12-08T00:10:48.540Z,0.00
2022-12-08T00:11:27.274Z,0.00
2022-12-08T00:12:26.531Z,0.00
2022-12-08T00:13:26.884Z,0.00
2022-12-08T00:14:27.087Z,0.00
2022-12-08T00:15:27.413Z,0.00
2022-12-08T00:16:27.823Z,0.00
2022-12-08T00:17:28.051Z,0.00
2022-12-08T00:18:28.342Z,0.00
2022-12-08T00:19:28.701Z,0.00
2022-12-08T00:20:29.022Z,0.00
2022-12-08T00:21:29.353Z,0.00
2022-12-08T00:22:29.692Z,0.00
2022-12-08T00:23:30.034Z,0.00
2022-12-08T00:24:30.245Z,0.00
2022-12-08T00:25:30.583Z,0.00
2022-12-08T00:26:30.900Z,0.00
2022-12-08T00:27:31.232Z,0.00
2022-12-08T00:28:31.475Z,0.00
2022-12-08T00:29:31.690Z,0.00
2022-12-08T00:30:31.995Z,0.00
2022-12-08T00:31:32.385Z,0.00
2022-12-08T00:32:32.573Z,0.00
2022-12-08T00:33:32.914Z,0.00
2022-12-08T00:34:33.298Z,0.00
2022-12-08T00:35:35.635Z,0.00
2022-12-08T00:36:33.739Z,0.00
2022-12-08T00:37:34.068Z,0.00
2022-12-08T00:38:34.414Z,0.00
2022-12-08T00:39:34.754Z,0.00
2022-12-08T00:40:35.055Z,0.00
2022-12-08T00:41:35.385Z,0.00
2022-12-08T00:42:35.718Z,0.00
2022-12-08T00:43:36.068Z,0.00
2022-12-08T00:44:36.386Z,0.00
2022-12-08T00:45:36.755Z,0.00
2022-12-08T00:46:36.965Z,0.00
2022-12-08T00:47:37.316Z,0.00
2022-12-08T00:48:37.657Z,0.00
2022-12-08T00:49:38.010Z,0.00
2022-12-08T00:50:38.337Z,0.00
2022-12-08T00:51:38.680Z,0.00
2022-12-08T00:52:38.997Z,0.00
2022-12-08T00:53:39.347Z,0.00
2022-12-08T00:54:39.645Z,0.00
2022-12-08T00:55:39.977Z,0.00
2022-12-08T00:56:40.308Z,0.00
2022-12-08T00:57:40.656Z,0.00
2022-12-08T00:58:40.877Z,0.00
2022-12-08T00:59:41.202Z,0.00
2022-12-08T01:00:41.464Z,0.00
2022-12-08T01:01:41.876Z,0.00
2022-12-08T01:02:42.085Z,0.00
2022-12-08T01:03:42.483Z,0.00
2022-12-08T01:04:42.721Z,0.00
2022-12-08T01:05:42.939Z,0.00
2022-12-08T01:06:43.278Z,0.00
2022-12-08T01:07:43.631Z,0.00
2022-12-08T01:08:43.849Z,0.00
2022-12-08T01:09:44.078Z,0.00
2022-12-08T01:10:44.297Z,0.00
2022-12-08T01:11:44.714Z,0.00
2022-12-08T01:12:44.928Z,0.00
2022-12-08T01:13:45.266Z,0.00
2022-12-08T01:14:45.588Z,0.00
2022-12-08T01:15:45.919Z,0.00
2022-12-08T01:16:46.279Z,0.00
2022-12-08T01:17:46.503Z,0.00
2022-12-08T01:18:46.728Z,0.00
2022-12-08T01:19:47.077Z,0.00
2022-12-08T01:20:47.281Z,0.00
2022-12-08T01:21:47.623Z,0.00
2022-12-08T01:22:47.947Z,0.00
2022-12-08T01:23:48.291Z,0.00
2022-12-08T01:24:48.622Z,0.00
2022-12-08T01:25:48.971Z,0.00
2022-12-08T01:26:49.300Z,0.00
2022-12-08T01:27:49.648Z,0.00
2022-12-08T01:28:49.971Z,0.00
2022-12-08T01:29:50.290Z,0.00
2022-12-08T01:30:50.617Z,0.00
2022-12-08T01:31:50.860Z,0.00
2022-12-08T01:32:51.198Z,0.00
2022-12-08T01:33:51.543Z,0.00
2022-12-08T01:34:51.860Z,0.00
2022-12-08T01:35:52.201Z,0.00
2022-12-08T01:36:52.538Z,0.00
2022-12-08T01:37:52.871Z,0.00
2022-12-08T01:38:53.220Z,0.00
2022-12-08T01:39:53.437Z,0.00
2022-12-08T01:40:53.771Z,0.00
2022-12-08T01:41:54.091Z,0.00
2022-12-08T01:42:54.408Z,0.00
2022-12-08T01:43:54.782Z,0.00
2022-12-08T01:44:54.985Z,0.00
2022-12-08T01:45:55.358Z,0.00
2022-12-08T01:46:55.543Z,0.00
2022-12-08T01:47:56.011Z,0.00
2022-12-08T01:48:56.214Z,0.00
2022-12-08T01:49:56.436Z,0.00
2022-12-08T01:50:56.775Z,0.00
2022-12-08T01:51:57.111Z,0.00
2022-12-08T01:52:57.430Z,0.00
2022-12-08T01:53:57.782Z,0.00
2022-12-08T01:54:57.993Z,0.00
2022-12-08T01:55:58.343Z,0.00
2022-12-08T01:56:58.684Z,0.00
2022-12-08T01:57:58.900Z,0.00
2022-12-08T01:58:59.261Z,0.00
2022-12-08T01:59:59.476Z,0.00
2022-12-08T02:00:59.840Z,0.00
2022-12-08T02:02:00.050Z,0.00
2022-12-08T02:03:00.490Z,0.00
2022-12-08T02:04:00.654Z,0.00
2022-12-08T02:05:00.880Z,0.00
2022-12-08T02:06:01.213Z,0.00
2022-12-08T02:07:06.480Z,0.00
2022-12-08T02:08:02.914Z,0.00
2022-12-08T02:09:02.196Z,0.00
2022-12-08T02:10:02.628Z,0.00
2022-12-08T02:11:02.674Z,0.00
2022-12-08T02:12:02.894Z,0.00
2022-12-08T02:13:03.235Z,0.00
2022-12-08T02:14:03.594Z,0.00
2022-12-08T02:15:05.514Z,0.00
2022-12-08T02:16:04.183Z,0.00
2022-12-08T02:17:04.425Z,0.00
2022-12-08T02:18:04.755Z,0.00
2022-12-08T02:19:29.876Z,0.00
2022-12-08T02:20:06.619Z,0.00
2022-12-08T02:21:05.653Z,0.00
2022-12-08T02:22:06.009Z,0.00
2022-12-08T02:23:06.215Z,0.00
2022-12-08T02:24:06.587Z,0.00
2022-12-08T02:25:06.807Z,0.00
2022-12-08T02:26:07.159Z,0.00
2022-12-08T02:27:07.385Z,0.00
2022-12-08T02:28:07.698Z,0.00
2022-12-08T02:29:08.058Z,0.00
2022-12-08T02:30:08.303Z,0.00
2022-12-08T02:31:08.608Z,0.00
2022-12-08T02:32:08.758Z,0.00
2022-12-08T02:33:08.967Z,0.00
2022-12-08T02:34:09.317Z,0.00
2022-12-08T02:35:09.538Z,0.00
2022-12-08T02:36:09.875Z,0.00
2022-12-08T02:37:10.229Z,0.00
2022-12-08T02:38:10.538Z,0.00
2022-12-08T02:39:10.885Z,0.00
2022-12-08T02:40:11.108Z,0.00
2022-12-08T02:41:11.387Z,0.00
2022-12-08T02:42:11.598Z,0.00
2022-12-08T02:43:11.941Z,0.00
2022-12-08T02:44:12.291Z,0.00
2022-12-08T02:45:12.510Z,0.00
2022-12-08T02:46:12.947Z,0.00
2022-12-08T02:47:13.157Z,0.00
2022-12-08T02:48:13.489Z,0.00
2022-12-08T02:49:13.840Z,0.00
2022-12-08T02:50:14.062Z,0.00
2022-12-08T02:51:14.385Z,0.00
2022-12-08T02:52:14.709Z,0.00
2022-12-08T02:53:52.446Z,0.00
2022-12-08T02:54:52.788Z,0.00
2022-12-08T02:55:53.125Z,0.00
2022-12-08T02:56:53.470Z,0.00
2022-12-08T02:57:53.788Z,0.00
2022-12-08T02:58:54.158Z,0.00
2022-12-08T02:59:54.370Z,0.00
2022-12-08T03:00:54.749Z,0.00
2022-12-08T03:01:55.047Z,0.00
2022-12-08T03:02:55.350Z,0.00
2022-12-08T03:03:55.584Z,0.00
2022-12-08T03:04:55.916Z,0.00
2022-12-08T03:05:56.238Z,0.00
2022-12-08T03:06:56.565Z,0.00
2022-12-08T03:07:56.943Z,0.00
2022-12-08T03:08:57.182Z,0.00
2022-12-08T03:09:57.407Z,0.00
2022-12-08T03:10:57.726Z,0.00
2022-12-08T03:11:58.041Z,0.00
2022-12-08T03:12:58.375Z,0.00
2022-12-08T03:13:58.713Z,0.00
2022-12-08T03:14:59.037Z,0.00
2022-12-08T03:15:59.436Z,0.00
2022-12-08T03:16:59.627Z,0.00
2022-12-08T03:17:59.958Z,0.00
2022-12-08T03:19:00.326Z,0.00
2022-12-08T03:20:00.708Z,0.00
2022-12-08T03:21:00.824Z,0.00
2022-12-08T03:22:01.145Z,0.00
2022-12-08T03:23:01.469Z,0.00
2022-12-08T03:24:01.819Z,0.00
2022-12-08T03:25:02.138Z,0.00
2022-12-08T03:26:02.461Z,0.00
2022-12-08T03:27:02.799Z,0.00
2022-12-08T03:28:03.121Z,0.00
2022-12-08T03:29:03.461Z,0.00
2022-12-08T03:30:04.129Z,0.00
2022-12-08T03:31:04.102Z,0.00
2022-12-08T03:32:04.341Z,0.00
2022-12-08T03:33:04.660Z,0.00
2022-12-08T03:34:05.022Z,0.00
2022-12-08T03:35:05.257Z,0.00
2022-12-08T03:36:05.560Z,0.00
2022-12-08T03:37:05.925Z,0.00
2022-12-08T03:38:06.241Z,0.00
2022-12-08T03:39:06.603Z,0.00
2022-12-08T03:40:07.171Z,0.00
2022-12-08T03:41:07.091Z,0.00
2022-12-08T03:42:07.422Z,0.00
2022-12-08T03:43:07.658Z,0.00
2022-12-08T03:44:07.994Z,0.00
2022-12-08T03:45:08.255Z,0.00
2022-12-08T03:46:08.516Z,0.00
2022-12-08T03:47:08.771Z,0.00
2022-12-08T03:48:09.015Z,0.00
2022-12-08T03:49:09.369Z,0.00
2022-12-08T03:50:09.584Z,0.00
2022-12-08T03:51:09.922Z,0.00
2022-12-08T03:52:10.246Z,0.00
2022-12-08T03:53:10.582Z,0.00
2022-12-08T03:54:10.999Z,0.00
2022-12-08T03:55:11.234Z,0.00
2022-12-08T03:56:11.574Z,0.00
2022-12-08T03:57:11.913Z,0.00
2022-12-08T03:58:12.249Z,0.00
2022-12-08T03:59:12.594Z,0.00
2022-12-08T04:00:12.923Z,0.00
2022-12-08T04:01:13.243Z,0.00
2022-12-08T04:02:13.592Z,0.00
2022-12-08T04:03:13.846Z,0.00
2022-12-08T04:04:14.081Z,0.00
2022-12-08T04:05:14.438Z,0.00
2022-12-08T04:06:14.645Z,0.00
2022-12-08T04:07:14.982Z,0.00
2022-12-08T04:08:15.339Z,0.00
2022-12-08T04:09:15.644Z,0.00
2022-12-08T04:10:15.864Z,0.00
2022-12-08T04:11:16.193Z,0.00
2022-12-08T04:12:16.536Z,4.00
2022-12-08T04:13:16.867Z,4.00
2022-12-08T04:14:17.225Z,4.00
2022-12-08T04:15:17.567Z,4.00
2022-12-08T04:16:17.866Z,4.00
2022-12-08T04:17:18.102Z,4.00
2022-12-08T04:18:18.443Z,4.00
2022-12-08T04:19:18.766Z,4.00
2022-12-08T04:20:19.077Z,4.00
2022-12-08T04:21:19.424Z,4.00
2022-12-08T04:22:19.736Z,4.00
2022-12-08T04:23:20.118Z,4.00
2022-12-08T04:24:20.333Z,4.00
2022-12-08T04:25:20.695Z,4.00
2022-12-08T04:26:20.956Z,4.00
2022-12-08T04:27:21.178Z,4.00
2022-12-08T04:28:21.527Z,4.00
2022-12-08T04:29:21.867Z,4.00
2022-12-08T04:30:22.112Z,4.00
2022-12-08T04:31:22.463Z,4.00
2022-12-08T04:32:22.715Z,4.00
2022-12-08T04:33:22.946Z,4.00
2022-12-08T04:34:23.220Z,4.00
2022-12-08T04:35:23.429Z,4.00
2022-12-08T04:36:23.784Z,4.00
2022-12-08T04:37:24.012Z,4.00
2022-12-08T04:38:24.238Z,4.00
2022-12-08T04:39:24.625Z,4.00
2022-12-08T04:40:24.839Z,4.00
2022-12-08T04:41:25.167Z,4.00
2022-12-08T04:42:25.516Z,4.00
2022-12-08T04:43:25.850Z,0.00
2022-12-08T04:44:26.199Z,0.00
2022-12-08T04:45:26.432Z,0.00
2022-12-08T04:46:26.798Z,4.00
2022-12-08T04:47:27.040Z,4.00
2022-12-08T04:48:27.280Z,4.00
2022-12-08T04:49:27.614Z,0.00
2022-12-08T04:50:27.826Z,0.00
2022-12-08T04:51:28.173Z,0.00
2022-12-08T04:52:28.414Z,4.00
2022-12-08T04:53:28.608Z,4.00
2022-12-08T04:54:28.998Z,4.00
2022-12-08T04:55:29.191Z,4.00
2022-12-08T04:56:29.526Z,4.00
2022-12-08T04:57:29.859Z,4.00
2022-12-08T04:58:30.190Z,4.00
2022-12-08T04:59:30.509Z,4.00
2022-12-08T05:00:30.831Z,4.00
2022-12-08T05:01:31.221Z,4.00
2022-12-08T05:02:31.513Z,4.00
2022-12-08T05:03:31.731Z,4.00
2022-12-08T05:04:32.072Z,4.00
2022-12-08T05:05:32.393Z,4.00
2022-12-08T05:06:32.715Z,4.00
2022-12-08T05:07:33.036Z,4.00
2022-12-08T05:08:33.408Z,4.00
2022-12-08T05:09:33.780Z,4.00
2022-12-08T05:10:33.944Z,4.00
2022-12-08T05:11:34.271Z,4.00
2022-12-08T05:12:34.601Z,4.00
2022-12-08T05:13:34.945Z,4.00
2022-12-08T05:14:35.353Z,4.00
2022-12-08T05:15:35.532Z,4.00
2022-12-08T05:16:35.927Z,4.00
2022-12-08T05:17:36.201Z,0.00
2022-12-08T05:18:36.524Z,0.00
2022-12-08T05:19:36.881Z,0.00
2022-12-08T05:20:37.093Z,0.00
2022-12-08T05:21:37.404Z,0.00
2022-12-08T05:22:37.752Z,0.00
2022-12-08T05:23:38.078Z,0.00
2022-12-08T05:24:42.510Z,0.00
2022-12-08T05:25:39.748Z,0.00
2022-12-08T05:26:39.013Z,0.00
2022-12-08T05:27:39.357Z,0.00
2022-12-08T05:28:41.901Z,0.00
2022-12-08T05:29:39.957Z,0.00
2022-12-08T05:30:40.166Z,0.00
2022-12-08T05:31:40.646Z,0.00
2022-12-08T05:32:40.815Z,0.00
2022-12-08T05:33:41.154Z,0.00
2022-12-08T05:34:41.492Z,0.00
2022-12-08T05:35:41.816Z,0.00
2022-12-08T05:36:42.164Z,0.00
2022-12-08T05:37:42.488Z,0.00
2022-12-08T05:38:42.832Z,0.00
2022-12-08T05:39:43.157Z,0.00
2022-12-08T05:40:43.499Z,0.00
2022-12-08T05:41:43.846Z,0.00
2022-12-08T05:42:44.081Z,0.00
2022-12-08T05:43:44.283Z,0.00
2022-12-08T05:44:44.626Z,0.00
2022-12-08T05:45:45.082Z,0.00
2022-12-08T05:46:45.271Z,0.00
2022-12-08T05:47:45.494Z,0.00
2022-12-08T05:48:45.823Z,0.00
2022-12-08T05:49:46.177Z,0.00
2022-12-08T05:50:46.488Z,0.00
2022-12-08T05:51:46.829Z,0.00
2022-12-08T05:52:47.157Z,0.00
2022-12-08T05:53:47.491Z,0.00
2022-12-08T05:54:47.850Z,0.00
2022-12-08T05:55:48.065Z,0.00
2022-12-08T05:56:48.397Z,0.00
2022-12-08T05:57:48.730Z,0.00
2022-12-08T05:58:49.070Z,0.00
2022-12-08T05:59:49.412Z,0.00
2022-12-08T06:00:49.619Z,0.00
2022-12-08T06:01:49.979Z,0.00
2022-12-08T06:02:50.413Z,0.00
2022-12-08T06:03:50.648Z,0.00
2022-12-08T06:04:50.899Z,0.00
2022-12-08T06:05:51.102Z,0.00
2022-12-08T06:06:51.496Z,0.00
2022-12-08T06:07:51.747Z,0.00
2022-12-08T06:08:51.931Z,0.00
2022-12-08T06:09:52.281Z,0.00
2022-12-08T06:10:52.598Z,0.00
2022-12-08T06:11:52.930Z,0.00
2022-12-08T06:12:53.271Z,0.00
2022-12-08T06:13:53.592Z,0.00
2022-12-08T06:14:53.930Z,0.00
2022-12-08T06:15:54.273Z,0.00
2022-12-08T06:16:54.760Z,0.00
2022-12-08T06:17:54.950Z,0.00
2022-12-08T06:18:55.271Z,0.00
2022-12-08T06:19:55.629Z,0.00
2022-12-08T06:20:55.851Z,0.00
2022-12-08T06:21:56.058Z,0.00
2022-12-08T06:22:56.400Z,0.00
2022-12-08T06:23:56.735Z,0.00
2022-12-08T06:24:57.111Z,0.00
2022-12-08T06:25:57.310Z,0.00
2022-12-08T06:26:57.651Z,0.00
2022-12-08T06:27:57.992Z,0.00
2022-12-08T06:28:58.340Z,0.00
2022-12-08T06:29:58.570Z,0.00
2022-12-08T06:30:58.892Z,0.00
2022-12-08T06:31:59.317Z,4.00
2022-12-08T06:32:59.491Z,4.00
2022-12-08T06:33:59.803Z,0.00
2022-12-08T06:35:00.173Z,0.00
2022-12-08T06:36:00.399Z,4.00
2022-12-08T06:37:00.753Z,4.00
2022-12-08T06:38:00.969Z,4.00
2022-12-08T06:39:01.303Z,4.00
2022-12-08T06:40:01.909Z,8.00
2022-12-08T06:41:01.922Z,4.00
2022-12-08T06:42:02.244Z,4.00
2022-12-08T06:43:02.596Z,8.00
2022-12-08T06:44:02.791Z,8.00
2022-12-08T06:45:03.154Z,8.00
2022-12-08T06:46:03.389Z,12.00
2022-12-08T06:47:03.667Z,16.00
2022-12-08T06:48:03.900Z,16.00
2022-12-08T06:49:04.164Z,20.00
2022-12-08T06:50:04.687Z,16.00
2022-12-08T06:51:04.617Z,24.00
2022-12-08T06:52:04.966Z,24.00
2022-12-08T06:53:05.886Z,24.00
2022-12-08T06:54:05.416Z,32.00
2022-12-08T06:55:05.665Z,32.00
2022-12-08T06:56:05.882Z,40.00
2022-12-08T06:57:06.223Z,40.00
2022-12-08T06:58:06.585Z,44.00
2022-12-08T06:59:06.814Z,40.00
2022-12-08T07:00:07.392Z,48.00
2022-12-08T07:01:07.419Z,48.00
2022-12-08T07:02:07.708Z,52.00
2022-12-08T07:03:07.938Z,56.00
2022-12-08T07:04:09.146Z,56.00
2022-12-08T07:05:08.559Z,60.00
2022-12-08T07:06:09.756Z,64.00
2022-12-08T07:07:09.997Z,68.00
2022-12-08T07:08:09.289Z,84.00
2022-12-08T07:09:09.555Z,92.00
2022-12-08T07:10:09.869Z,104.00
2022-12-08T07:11:10.119Z,116.00
2022-12-08T07:12:10.344Z,112.00
2022-12-08T07:13:10.584Z,116.00
2022-12-08T07:14:10.819Z,120.00
2022-12-08T07:15:11.078Z,120.00
2022-12-08T07:16:11.309Z,128.00
2022-12-08T07:17:11.647Z,148.00
2022-12-08T07:18:11.880Z,160.00
2022-12-08T07:19:12.114Z,176.00
2022-12-08T07:20:12.368Z,204.00
2022-12-08T07:21:12.590Z,224.00
2022-12-08T07:22:12.891Z,240.00
2022-12-08T07:23:13.182Z,248.00
2022-12-08T07:24:13.379Z,248.00
2022-12-08T07:25:13.789Z,272.00
2022-12-08T07:26:14.019Z,276.00
2022-12-08T07:27:14.271Z,272.00
2022-12-08T07:28:14.517Z,308.00
2022-12-08T07:29:14.730Z,316.00
2022-12-08T07:30:15.088Z,332.00
2022-12-08T07:31:15.302Z,384.00
2022-12-08T07:32:15.537Z,376.00
2022-12-08T07:33:15.781Z,372.00
2022-12-08T07:34:16.002Z,376.00
2022-12-08T07:35:16.263Z,404.00
2022-12-08T07:36:16.505Z,436.00
2022-12-08T07:37:16.757Z,460.00
2022-12-08T07:38:17.003Z,464.00
2022-12-08T07:39:17.241Z,488.00
2022-12-08T07:40:17.501Z,472.00
2022-12-08T07:41:17.730Z,508.00
2022-12-08T07:42:17.971Z,496.00
2022-12-08T07:43:18.201Z,456.00
2022-12-08T07:44:18.433Z,404.00
2022-12-08T07:45:18.683Z,360.00
2022-12-08T07:46:18.951Z,356.00
2022-12-08T07:47:19.171Z,316.00
2022-12-08T07:48:19.412Z,376.00
2022-12-08T07:49:19.669Z,396.00
2022-12-08T07:50:20.639Z,456.00
2022-12-08T07:51:20.212Z,532.00
2022-12-08T07:52:20.464Z,600.00
2022-12-08T07:53:20.733Z,576.00
2022-12-08T07:54:21.015Z,620.00
2022-12-08T07:55:21.281Z,608.00
2022-12-08T07:56:21.563Z,684.00
2022-12-08T07:57:21.796Z,700.00
2022-12-08T07:58:22.016Z,696.00
2022-12-08T07:59:22.396Z,752.00
2022-12-08T08:00:22.643Z,760.00
2022-12-08T08:01:22.999Z,732.00
2022-12-08T08:02:25.281Z,756.00
2022-12-08T08:03:23.532Z,780.00
2022-12-08T08:04:23.800Z,852.00
2022-12-08T08:05:24.034Z,904.00
2022-12-08T08:06:24.278Z,924.00
2022-12-08T08:07:24.505Z,844.00
2022-12-08T08:08:24.790Z,824.00
2022-12-08T08:09:25.046Z,788.00
2022-12-08T08:10:25.274Z,828.00
2022-12-08T08:11:25.555Z,896.00
2022-12-08T08:12:33.343Z,940.00
2022-12-08T08:13:27.065Z,1032.00
2022-12-08T08:14:26.265Z,1060.00
2022-12-08T08:15:26.572Z,1132.00
2022-12-08T08:16:28.575Z,1064.00
2022-12-08T08:17:27.442Z,1020.00
2022-12-08T08:18:27.333Z,1000.00
2022-12-08T08:19:27.586Z,1044.00
2022-12-08T08:20:27.936Z,1068.00
2022-12-08T08:22:29.337Z,1052.00
2022-12-08T08:23:28.668Z,988.00
2022-12-08T08:24:28.906Z,980.00
2022-12-08T08:25:29.200Z,940.00
2022-12-08T08:26:29.481Z,820.00
2022-12-08T08:27:29.737Z,720.00
2022-12-08T08:28:29.967Z,672.00
2022-12-08T08:29:30.204Z,616.00
2022-12-08T08:30:30.478Z,656.00
2022-12-08T08:31:30.888Z,672.00
2022-12-08T08:32:30.986Z,744.00
2022-12-08T08:33:31.217Z,796.00
2022-12-08T08:34:31.434Z,952.00
2022-12-08T08:35:31.718Z,1116.00
2022-12-08T08:36:31.973Z,1280.00
2022-12-08T08:37:32.251Z,1532.00
2022-12-08T08:38:32.652Z,1716.00
2022-12-08T08:39:32.818Z,1684.00
2022-12-08T08:40:33.109Z,1680.00
2022-12-08T08:41:33.417Z,1812.00
2022-12-08T08:42:33.684Z,2044.00
2022-12-08T08:43:38.049Z,2124.00
2022-12-08T08:44:34.298Z,2684.00
2022-12-08T08:45:34.590Z,2456.00
2022-12-08T08:46:34.904Z,2436.00
2022-12-08T08:47:35.161Z,2316.00
2022-12-08T08:48:35.469Z,2100.00
2022-12-08T08:49:35.721Z,2284.00
2022-12-08T08:50:37.750Z,2244.00
2022-12-08T08:51:36.263Z,2056.00
2022-12-08T08:52:36.522Z,1772.00
2022-12-08T08:53:36.820Z,1520.00
2022-12-08T08:54:37.090Z,1528.00
2022-12-08T08:55:37.368Z,1516.00
2022-12-08T08:56:37.630Z,1788.00
2022-12-08T08:57:37.931Z,2164.00
2022-12-08T08:58:38.195Z,2672.00
2022-12-08T08:59:38.432Z,2428.00
2022-12-08T09:00:38.723Z,2260.00
2022-12-08T09:01:39.084Z,1828.00
2022-12-08T09:02:39.271Z,1876.00
2022-12-08T09:03:39.552Z,1832.00
2022-12-08T09:04:39.896Z,1732.00
2022-12-08T09:05:40.171Z,1580.00
2022-12-08T09:06:40.421Z,1432.00
2022-12-08T09:07:40.662Z,1568.00
2022-12-08T09:08:40.943Z,1660.00
2022-12-08T09:09:41.213Z,1928.00
2022-12-08T09:10:41.506Z,2012.00
2022-12-08T09:11:41.752Z,2100.00
2022-12-08T09:12:42.038Z,2276.00
2022-12-08T09:13:42.285Z,2232.00
2022-12-08T09:14:42.555Z,2204.00
2022-12-08T09:15:42.955Z,2292.00
2022-12-08T09:16:43.165Z,2364.00
2022-12-08T09:17:43.303Z,2584.00
2022-12-08T09:18:43.578Z,2780.00
2022-12-08T09:19:43.846Z,2900.00
2022-12-08T09:20:44.143Z,2820.00
2022-12-08T09:21:44.406Z,2888.00
2022-12-08T09:22:44.715Z,2828.00
2022-12-08T09:23:44.976Z,3076.00
2022-12-08T09:24:45.278Z,3100.00
2022-12-08T09:25:45.544Z,3196.00
2022-12-08T09:26:45.808Z,3244.00
2022-12-08T09:27:46.075Z,3188.00
2022-12-08T09:28:46.440Z,2972.00
2022-12-08T09:29:46.575Z,2736.00
2022-12-08T09:30:46.938Z,2580.00
2022-12-08T09:31:47.204Z,2596.00
2022-12-08T09:32:47.375Z,2536.00
2022-12-08T09:33:47.645Z,2452.00
2022-12-08T09:34:52.067Z,2420.00
2022-12-08T09:35:48.147Z,2428.00
2022-12-08T09:36:48.397Z,2316.00
2022-12-08T09:37:48.675Z,2336.00
2022-12-08T09:38:48.953Z,2324.00
2022-12-08T09:39:49.228Z,2364.00
2022-12-08T09:40:49.518Z,2144.00
2022-12-08T09:41:57.338Z,2120.00
2022-12-08T09:42:50.075Z,2236.00
2022-12-08T09:43:50.350Z,2124.00
2022-12-08T09:44:50.603Z,2332.00
2022-12-08T09:45:50.869Z,2248.00
2022-12-08T09:46:51.186Z,2188.00
2022-12-08T09:47:51.456Z,1972.00
2022-12-08T09:48:51.715Z,1808.00
2022-12-08T09:49:51.967Z,1704.00
2022-12-08T09:50:52.246Z,1652.00
2022-12-08T09:51:52.524Z,1544.00
2022-12-08T09:52:52.826Z,1596.00
2022-12-08T09:53:53.076Z,1604.00
2022-12-08T09:54:53.415Z,1660.00
2022-12-08T09:55:53.704Z,1500.00
2022-12-08T09:56:53.978Z,1560.00
2022-12-08T09:57:56.455Z,1656.00
2022-12-08T09:58:54.568Z,1660.00
2022-12-08T09:59:54.856Z,1752.00
2022-12-08T10:00:55.130Z,2068.00
2022-12-08T10:01:55.486Z,2168.00
2022-12-08T10:02:55.618Z,2120.00
2022-12-08T10:03:55.878Z,2132.00
2022-12-08T10:04:56.164Z,2028.00
2022-12-08T10:05:56.446Z,2200.00
2022-12-08T10:06:56.712Z,2332.00
2022-12-08T10:07:57.050Z,2772.00
2022-12-08T10:08:57.286Z,3072.00
2022-12-08T10:09:57.531Z,3340.00
2022-12-08T10:10:57.792Z,3384.00
2022-12-08T10:11:58.095Z,3348.00
2022-12-08T10:12:58.350Z,2924.00
2022-12-08T10:13:58.579Z,2608.00
2022-12-08T10:14:58.853Z,2320.00
2022-12-08T10:15:59.248Z,2608.00
2022-12-08T10:16:59.403Z,2352.00
2022-12-08T10:17:59.662Z,2580.00
2022-12-08T10:18:59.891Z,2856.00
2022-12-08T10:20:00.132Z,2656.00
2022-12-08T10:21:00.406Z,2368.00
2022-12-08T10:22:00.656Z,2436.00
2022-12-08T10:23:00.898Z,2612.00
2022-12-08T10:24:01.131Z,2200.00
2022-12-08T10:25:01.370Z,2068.00
2022-12-08T10:26:01.657Z,1940.00
2022-12-08T10:27:01.910Z,1784.00
2022-12-08T10:28:02.152Z,1972.00
2022-12-08T10:29:02.401Z,2044.00
2022-12-08T10:30:03.050Z,1760.00
2022-12-08T10:31:03.037Z,1840.00
2022-12-08T10:32:03.326Z,1724.00
2022-12-08T10:33:03.509Z,1724.00
2022-12-08T10:34:03.743Z,1624.00
2022-12-08T10:35:03.993Z,1700.00
2022-12-08T10:36:04.282Z,1896.00
2022-12-08T10:37:04.523Z,1996.00
2022-12-08T10:38:04.897Z,2028.00
2022-12-08T10:39:05.015Z,2004.00
2022-12-08T10:40:05.535Z,2108.00
2022-12-08T10:41:05.541Z,2108.00
2022-12-08T10:42:05.888Z,2356.00
2022-12-08T10:43:06.053Z,2344.00
2022-12-08T10:44:06.291Z,2360.00
2022-12-08T10:45:06.544Z,2488.00
2022-12-08T10:46:06.863Z,2712.00
2022-12-08T10:47:07.135Z,2784.00
2022-12-08T10:48:07.376Z,2724.00
2022-12-08T10:49:07.642Z,2720.00
2022-12-08T10:50:08.065Z,2892.00
2022-12-08T10:51:08.285Z,2968.00
2022-12-08T10:52:08.504Z,3100.00
2022-12-08T10:53:08.748Z,2820.00
2022-12-08T10:54:08.997Z,2748.00
2022-12-08T10:55:09.287Z,2556.00
2022-12-08T10:56:09.554Z,2428.00
2022-12-08T10:57:09.830Z,2664.00
2022-12-08T10:58:10.095Z,2760.00
2022-12-08T10:59:10.356Z,2608.00
2022-12-08T11:00:14.010Z,2240.00
2022-12-08T11:01:11.031Z,2104.00
2022-12-08T11:02:11.253Z,1976.00
2022-12-08T11:03:11.519Z,1932.00
2022-12-08T11:04:11.759Z,1748.00
2022-12-08T11:05:12.036Z,1676.00
2022-12-08T11:06:12.336Z,1644.00
2022-12-08T11:07:12.582Z,1568.00
2022-12-08T11:08:12.880Z,1656.00
2022-12-08T11:09:13.107Z,1812.00
2022-12-08T11:10:13.338Z,1824.00
2022-12-08T11:11:13.611Z,1764.00
2022-12-08T11:12:13.887Z,1844.00
2022-12-08T11:13:14.098Z,1716.00
2022-12-08T11:14:14.329Z,1920.00
2022-12-08T11:15:14.577Z,1804.00
2022-12-08T11:16:14.888Z,2080.00
2022-12-08T11:17:15.168Z,2000.00
2022-12-08T11:18:15.439Z,2136.00
2022-12-08T11:19:15.720Z,2128.00
2022-12-08T11:20:15.949Z,2008.00
2022-12-08T11:21:16.217Z,1924.00
2022-12-08T11:22:16.481Z,1924.00
2022-12-08T11:23:16.723Z,2188.00
2022-12-08T11:24:16.988Z,2320.00
2022-12-08T11:25:17.273Z,2796.00
2022-12-08T11:26:17.540Z,2612.00
2022-12-08T11:27:17.873Z,2196.00
2022-12-08T11:28:18.120Z,2320.00
2022-12-08T11:29:18.454Z,2568.00
2022-12-08T11:30:19.065Z,2640.00
2022-12-08T11:31:19.080Z,2760.00
2022-12-08T11:32:19.178Z,2704.00
2022-12-08T11:33:19.439Z,2784.00
2022-12-08T11:34:19.699Z,3348.00
2022-12-08T11:35:19.942Z,3632.00
2022-12-08T11:36:20.189Z,3796.00
2022-12-08T11:37:20.441Z,4120.00
2022-12-08T11:38:22.132Z,3908.00
2022-12-08T11:39:21.014Z,3632.00
2022-12-08T11:40:21.250Z,3564.00
2022-12-08T11:41:21.504Z,3484.00
2022-12-08T11:42:21.745Z,3500.00
2022-12-08T11:43:21.994Z,3608.00
2022-12-08T11:44:22.245Z,3712.00
2022-12-08T11:45:22.575Z,3728.00
2022-12-08T11:46:23.642Z,3656.00
2022-12-08T11:47:23.082Z,3572.00
2022-12-08T11:48:23.343Z,3068.00
2022-12-08T11:49:23.598Z,3284.00
2022-12-08T11:50:23.855Z,3452.00
2022-12-08T11:51:24.124Z,3500.00
2022-12-08T11:52:24.418Z,3412.00
2022-12-08T11:53:24.694Z,3600.00
2022-12-08T11:54:25.685Z,3580.00
2022-12-08T11:55:25.283Z,3544.00
2022-12-08T11:56:25.554Z,3616.00
2022-12-08T11:57:25.794Z,3600.00
2022-12-08T11:58:26.094Z,3068.00
2022-12-08T11:59:26.354Z,3060.00
2022-12-08T12:00:26.601Z,3216.00
2022-12-08T12:01:26.910Z,2860.00
2022-12-08T12:02:27.229Z,2996.00
2022-12-08T12:03:27.419Z,2752.00
2022-12-08T12:04:27.677Z,2356.00
2022-12-08T12:05:47.624Z,2388.00
2022-12-08T12:07:29.555Z,2208.00
2022-12-08T12:08:28.961Z,1996.00
2022-12-08T12:09:29.247Z,1792.00
2022-12-08T12:10:29.481Z,1596.00
2022-12-08T12:11:29.757Z,1400.00
2022-12-08T12:12:33.659Z,1488.00
2022-12-08T12:13:31.390Z,1616.00
2022-12-08T12:14:30.708Z,1368.00
2022-12-08T12:15:30.955Z,1332.00
2022-12-08T12:16:31.294Z,1356.00
2022-12-08T12:17:31.552Z,1176.00
2022-12-08T12:18:31.787Z,1096.00
2022-12-08T12:19:32.037Z,980.00
2022-12-08T12:20:32.360Z,972.00
2022-12-08T12:21:32.630Z,872.00
2022-12-08T12:22:32.875Z,968.00
2022-12-08T12:23:33.109Z,916.00
2022-12-08T12:24:36.031Z,1016.00
2022-12-08T12:25:33.600Z,1208.00
2022-12-08T12:26:39.901Z,1528.00
2022-12-08T12:27:34.197Z,1416.00
2022-12-08T12:28:34.433Z,1384.00
2022-12-08T12:29:34.682Z,1444.00
2022-12-08T12:30:35.002Z,1556.00
2022-12-08T12:31:35.252Z,1708.00
2022-12-08T12:32:35.517Z,1544.00
2022-12-08T12:33:35.754Z,1416.00
2022-12-08T12:34:36.005Z,1280.00
2022-12-08T12:35:36.265Z,1208.00
2022-12-08T12:36:36.523Z,1256.00
2022-12-08T12:37:36.781Z,976.00
2022-12-08T12:38:37.016Z,964.00
2022-12-08T12:39:37.274Z,1424.00
2022-12-08T12:40:37.515Z,1608.00
2022-12-08T12:41:37.766Z,1496.00
2022-12-08T12:42:38.014Z,1672.00
2022-12-08T12:43:38.257Z,1420.00
2022-12-08T12:44:38.490Z,1496.00
2022-12-08T12:45:38.790Z,1388.00
2022-12-08T12:46:39.101Z,1468.00
2022-12-08T12:47:39.367Z,1380.00
2022-12-08T12:48:39.605Z,1348.00
2022-12-08T12:49:39.876Z,1436.00
2022-12-08T12:50:40.100Z,1528.00
2022-12-08T12:51:40.365Z,1524.00
2022-12-08T12:52:41.386Z,1384.00